sensor_id;sensor_type;location;lat;lon;timestamp;P1;durP1;ratioP1;P2;durP2;ratioP2
7402;SDS011;3742;48.770;11.440;2022-07-31T00:00:27;4.70;;;4.30;;
7402;SDS011;3742;48.770;11.440;2022-07-31T00:02:55;4.90;;;4.40;;
7402;SDS011;3742;48.770;11.440;2022-07-31T00:05:24;4.80;;;4.30;;
7402;SDS011;3742;48.770;11.440;2022-07-31T00:07:52;5.73;;;4.47;;
7402;SDS011;3742;48.770;11.440;2022-07-31T00:10:21;6.67;;;4.63;;
7402;SDS011;3742;48.770;11.440;2022-07-31T00:12:49;5.93;;;4.10;;
7402;SDS011;3742;48.770;11.440;2022-07-31T00:15:19;6.27;;;4.33;;
7402;SDS011;3742;48.770;11.440;2022-07-31T00:17:48;6.87;;;4.80;;
7402;SDS011;3742;48.770;11.440;2022-07-31T00:20:17;6.20;;;4.50;;
7402;SDS011;3742;48.770;11.440;2022-07-31T00:22:46;7.57;;;4.43;;
7402;SDS011;3742;48.770;11.440;2022-07-31T00:25:16;5.93;;;5.20;;
7402;SDS011;3742;48.770;11.440;2022-07-31T00:27:46;5.63;;;4.10;;
7402;SDS011;3742;48.770;11.440;2022-07-31T00:30:14;7.63;;;4.73;;
7402;SDS011;3742;48.770;11.440;2022-07-31T00:32:45;4.93;;;4.23;;
7402;SDS011;3742;48.770;11.440;2022-07-31T00:35:17;11.37;;;4.37;;
7402;SDS011;3742;48.770;11.440;2022-07-31T00:37:46;4.63;;;4.17;;
7402;SDS011;3742;48.770;11.440;2022-07-31T00:40:15;7.97;;;4.40;;
7402;SDS011;3742;48.770;11.440;2022-07-31T00:42:44;6.83;;;4.00;;
7402;SDS011;3742;48.770;11.440;2022-07-31T00:45:12;5.90;;;3.77;;
7402;SDS011;3742;48.770;11.440;2022-07-31T00:47:42;7.03;;;4.53;;
7402;SDS011;3742;48.770;11.440;2022-07-31T00:50:12;5.63;;;4.53;;
7402;SDS011;3742;48.770;11.440;2022-07-31T00:52:41;6.37;;;3.77;;
7402;SDS011;3742;48.770;11.440;2022-07-31T00:55:09;5.53;;;4.70;;
7402;SDS011;3742;48.770;11.440;2022-07-31T00:57:38;5.33;;;4.13;;
7402;SDS011;3742;48.770;11.440;2022-07-31T01:00:07;7.47;;;4.83;;
7402;SDS011;3742;48.770;11.440;2022-07-31T01:02:36;5.17;;;4.20;;
7402;SDS011;3742;48.770;11.440;2022-07-31T01:05:14;5.53;;;4.57;;
7402;SDS011;3742;48.770;11.440;2022-07-31T01:07:44;6.17;;;4.47;;
7402;SDS011;3742;48.770;11.440;2022-07-31T01:10:16;7.57;;;5.00;;
7402;SDS011;3742;48.770;11.440;2022-07-31T01:12:49;5.97;;;5.00;;
7402;SDS011;3742;48.770;11.440;2022-07-31T01:15:20;5.63;;;4.77;;
7402;SDS011;3742;48.770;11.440;2022-07-31T01:17:49;4.90;;;4.50;;
7402;SDS011;3742;48.770;11.440;2022-07-31T01:20:20;5.63;;;4.80;;
7402;SDS011;3742;48.770;11.440;2022-07-31T01:22:53;5.07;;;4.57;;
7402;SDS011;3742;48.770;11.440;2022-07-31T01:25:32;6.80;;;4.63;;
7402;SDS011;3742;48.770;11.440;2022-07-31T01:28:21;6.27;;;5.23;;
7402;SDS011;3742;48.770;11.440;2022-07-31T01:31:04;5.10;;;4.53;;
7402;SDS011;3742;48.770;11.440;2022-07-31T01:33:58;5.07;;;4.57;;
7402;SDS011;3742;48.770;11.440;2022-07-31T01:36:28;4.70;;;4.30;;
7402;SDS011;3742;48.770;11.440;2022-07-31T01:39:02;7.17;;;5.03;;
7402;SDS011;3742;48.770;11.440;2022-07-31T01:41:32;8.07;;;4.80;;
7402;SDS011;3742;48.770;11.440;2022-07-31T01:44:04;8.80;;;4.67;;
7402;SDS011;3742;48.770;11.440;2022-07-31T01:46:41;5.40;;;4.80;;
7402;SDS011;3742;48.770;11.440;2022-07-31T01:49:11;6.57;;;5.10;;
7402;SDS011;3742;48.770;11.440;2022-07-31T01:51:42;4.90;;;4.50;;
7402;SDS011;3742;48.770;11.440;2022-07-31T01:54:12;5.70;;;4.63;;
7402;SDS011;3742;48.770;11.440;2022-07-31T01:56:41;5.83;;;4.20;;
7402;SDS011;3742;48.770;11.440;2022-07-31T01:59:11;4.53;;;4.13;;
7402;SDS011;3742;48.770;11.440;2022-07-31T02:02:11;6.93;;;4.17;;
7402;SDS011;3742;48.770;11.440;2022-07-31T02:04:42;5.10;;;4.60;;
7402;SDS011;3742;48.770;11.440;2022-07-31T02:07:13;4.90;;;4.40;;
7402;SDS011;3742;48.770;11.440;2022-07-31T02:09:43;4.70;;;4.10;;
7402;SDS011;3742;48.770;11.440;2022-07-31T02:12:28;6.23;;;4.17;;
7402;SDS011;3742;48.770;11.440;2022-07-31T02:15:02;5.87;;;4.20;;
7402;SDS011;3742;48.770;11.440;2022-07-31T02:17:35;5.80;;;4.47;;
7402;SDS011;3742;48.770;11.440;2022-07-31T02:20:42;5.00;;;4.43;;
7402;SDS011;3742;48.770;11.440;2022-07-31T02:23:12;5.13;;;4.57;;
7402;SDS011;3742;48.770;11.440;2022-07-31T02:25:41;4.17;;;3.87;;
7402;SDS011;3742;48.770;11.440;2022-07-31T02:28:11;5.20;;;4.67;;
7402;SDS011;3742;48.770;11.440;2022-07-31T02:30:43;4.70;;;4.20;;
7402;SDS011;3742;48.770;11.440;2022-07-31T02:33:17;5.13;;;4.70;;
7402;SDS011;3742;48.770;11.440;2022-07-31T02:35:47;5.97;;;4.30;;
7402;SDS011;3742;48.770;11.440;2022-07-31T02:38:17;6.13;;;4.47;;
7402;SDS011;3742;48.770;11.440;2022-07-31T02:40:52;5.40;;;4.43;;
7402;SDS011;3742;48.770;11.440;2022-07-31T02:43:22;5.17;;;4.60;;
7402;SDS011;3742;48.770;11.440;2022-07-31T02:45:51;6.43;;;4.80;;
7402;SDS011;3742;48.770;11.440;2022-07-31T02:48:22;5.83;;;5.33;;
7402;SDS011;3742;48.770;11.440;2022-07-31T02:50:52;5.30;;;4.80;;
7402;SDS011;3742;48.770;11.440;2022-07-31T02:53:21;6.03;;;5.20;;
7402;SDS011;3742;48.770;11.440;2022-07-31T02:55:52;5.50;;;5.00;;
7402;SDS011;3742;48.770;11.440;2022-07-31T02:58:21;5.37;;;4.87;;
7402;SDS011;3742;48.770;11.440;2022-07-31T03:00:56;5.73;;;5.10;;
7402;SDS011;3742;48.770;11.440;2022-07-31T03:03:27;5.93;;;5.27;;
7402;SDS011;3742;48.770;11.440;2022-07-31T03:05:56;7.03;;;5.83;;
7402;SDS011;3742;48.770;11.440;2022-07-31T03:08:25;6.20;;;5.40;;
7402;SDS011;3742;48.770;11.440;2022-07-31T03:10:57;7.60;;;6.50;;
7402;SDS011;3742;48.770;11.440;2022-07-31T03:13:26;7.37;;;5.70;;
7402;SDS011;3742;48.770;11.440;2022-07-31T03:15:56;6.63;;;5.90;;
7402;SDS011;3742;48.770;11.440;2022-07-31T03:18:27;6.87;;;6.17;;
7402;SDS011;3742;48.770;11.440;2022-07-31T03:20:56;6.90;;;5.50;;
7402;SDS011;3742;48.770;11.440;2022-07-31T03:23:25;6.30;;;5.70;;
7402;SDS011;3742;48.770;11.440;2022-07-31T03:26:06;7.40;;;5.90;;
7402;SDS011;3742;48.770;11.440;2022-07-31T03:28:35;6.53;;;5.90;;
7402;SDS011;3742;48.770;11.440;2022-07-31T03:31:03;6.90;;;5.83;;
7402;SDS011;3742;48.770;11.440;2022-07-31T03:33:36;7.63;;;6.03;;
7402;SDS011;3742;48.770;11.440;2022-07-31T03:36:04;7.47;;;5.90;;
7402;SDS011;3742;48.770;11.440;2022-07-31T03:38:35;6.53;;;5.93;;
7402;SDS011;3742;48.770;11.440;2022-07-31T03:41:18;7.40;;;5.93;;
7402;SDS011;3742;48.770;11.440;2022-07-31T03:43:46;7.33;;;6.20;;
7402;SDS011;3742;48.770;11.440;2022-07-31T03:46:18;7.67;;;6.40;;
7402;SDS011;3742;48.770;11.440;2022-07-31T03:48:48;8.10;;;5.83;;
7402;SDS011;3742;48.770;11.440;2022-07-31T03:51:19;7.03;;;6.33;;
7402;SDS011;3742;48.770;11.440;2022-07-31T03:53:48;8.27;;;6.30;;
7402;SDS011;3742;48.770;11.440;2022-07-31T03:56:49;6.83;;;6.13;;
7402;SDS011;3742;48.770;11.440;2022-07-31T03:59:18;7.53;;;6.33;;
7402;SDS011;3742;48.770;11.440;2022-07-31T04:01:47;6.43;;;5.83;;
7402;SDS011;3742;48.770;11.440;2022-07-31T04:04:41;9.07;;;5.90;;
7402;SDS011;3742;48.770;11.440;2022-07-31T04:07:09;5.70;;;5.10;;
7402;SDS011;3742;48.770;11.440;2022-07-31T04:09:40;6.63;;;6.03;;
7402;SDS011;3742;48.770;11.440;2022-07-31T04:12:10;6.20;;;5.60;;
7402;SDS011;3742;48.770;11.440;2022-07-31T04:14:39;6.60;;;5.80;;
7402;SDS011;3742;48.770;11.440;2022-07-31T04:17:07;6.47;;;5.87;;
7402;SDS011;3742;48.770;11.440;2022-07-31T04:19:36;8.63;;;6.30;;
7402;SDS011;3742;48.770;11.440;2022-07-31T04:22:06;5.97;;;5.47;;
7402;SDS011;3742;48.770;11.440;2022-07-31T04:24:36;6.77;;;6.00;;
7402;SDS011;3742;48.770;11.440;2022-07-31T04:27:05;7.77;;;5.93;;
7402;SDS011;3742;48.770;11.440;2022-07-31T04:29:41;6.00;;;5.40;;
7402;SDS011;3742;48.770;11.440;2022-07-31T04:32:10;5.63;;;5.13;;
7402;SDS011;3742;48.770;11.440;2022-07-31T04:34:49;6.57;;;5.60;;
7402;SDS011;3742;48.770;11.440;2022-07-31T04:37:18;6.73;;;5.53;;
7402;SDS011;3742;48.770;11.440;2022-07-31T04:39:47;6.13;;;5.53;;
7402;SDS011;3742;48.770;11.440;2022-07-31T04:42:15;5.83;;;5.33;;
7402;SDS011;3742;48.770;11.440;2022-07-31T04:44:44;6.43;;;5.23;;
7402;SDS011;3742;48.770;11.440;2022-07-31T04:47:12;7.03;;;5.83;;
7402;SDS011;3742;48.770;11.440;2022-07-31T04:49:44;6.30;;;5.27;;
7402;SDS011;3742;48.770;11.440;2022-07-31T04:52:15;6.20;;;5.70;;
7402;SDS011;3742;48.770;11.440;2022-07-31T04:54:48;5.67;;;5.13;;
7402;SDS011;3742;48.770;11.440;2022-07-31T04:57:16;5.90;;;5.00;;
7402;SDS011;3742;48.770;11.440;2022-07-31T04:59:48;6.10;;;5.20;;
7402;SDS011;3742;48.770;11.440;2022-07-31T05:02:27;5.10;;;4.60;;
7402;SDS011;3742;48.770;11.440;2022-07-31T05:04:56;9.40;;;5.20;;
7402;SDS011;3742;48.770;11.440;2022-07-31T05:07:31;5.00;;;4.30;;
7402;SDS011;3742;48.770;11.440;2022-07-31T05:10:06;6.13;;;5.33;;
7402;SDS011;3742;48.770;11.440;2022-07-31T05:12:35;6.37;;;5.63;;
7402;SDS011;3742;48.770;11.440;2022-07-31T05:15:04;5.70;;;5.03;;
7402;SDS011;3742;48.770;11.440;2022-07-31T05:17:34;6.33;;;4.93;;
7402;SDS011;3742;48.770;11.440;2022-07-31T05:20:21;6.17;;;5.60;;
7402;SDS011;3742;48.770;11.440;2022-07-31T05:23:02;5.43;;;4.93;;
7402;SDS011;3742;48.770;11.440;2022-07-31T05:25:53;6.17;;;4.87;;
7402;SDS011;3742;48.770;11.440;2022-07-31T05:28:21;6.00;;;5.40;;
7402;SDS011;3742;48.770;11.440;2022-07-31T05:30:56;6.67;;;5.93;;
7402;SDS011;3742;48.770;11.440;2022-07-31T05:33:25;5.77;;;5.20;;
7402;SDS011;3742;48.770;11.440;2022-07-31T05:35:54;6.00;;;5.37;;
7402;SDS011;3742;48.770;11.440;2022-07-31T05:38:23;6.37;;;5.20;;
7402;SDS011;3742;48.770;11.440;2022-07-31T05:41:25;5.80;;;5.20;;
7402;SDS011;3742;48.770;11.440;2022-07-31T05:44:15;6.17;;;5.57;;
7402;SDS011;3742;48.770;11.440;2022-07-31T05:46:47;6.97;;;5.10;;
7402;SDS011;3742;48.770;11.440;2022-07-31T05:49:16;5.80;;;4.87;;
7402;SDS011;3742;48.770;11.440;2022-07-31T05:51:48;6.80;;;5.30;;
7402;SDS011;3742;48.770;11.440;2022-07-31T05:54:20;5.80;;;5.20;;
7402;SDS011;3742;48.770;11.440;2022-07-31T05:57:09;6.17;;;5.57;;
7402;SDS011;3742;48.770;11.440;2022-07-31T05:59:57;6.53;;;5.37;;
7402;SDS011;3742;48.770;11.440;2022-07-31T06:02:37;8.10;;;5.57;;
7402;SDS011;3742;48.770;11.440;2022-07-31T06:05:35;5.40;;;4.73;;
7402;SDS011;3742;48.770;11.440;2022-07-31T06:08:03;8.43;;;5.20;;
7402;SDS011;3742;48.770;11.440;2022-07-31T06:10:39;6.00;;;5.00;;
7402;SDS011;3742;48.770;11.440;2022-07-31T06:13:10;7.00;;;4.80;;
7402;SDS011;3742;48.770;11.440;2022-07-31T06:15:39;6.70;;;5.30;;
7402;SDS011;3742;48.770;11.440;2022-07-31T06:18:15;4.60;;;4.20;;
7402;SDS011;3742;48.770;11.440;2022-07-31T06:20:44;5.70;;;5.17;;
7402;SDS011;3742;48.770;11.440;2022-07-31T06:23:12;5.43;;;4.90;;
7402;SDS011;3742;48.770;11.440;2022-07-31T06:25:51;6.83;;;4.90;;
7402;SDS011;3742;48.770;11.440;2022-07-31T06:28:21;5.87;;;5.23;;
7402;SDS011;3742;48.770;11.440;2022-07-31T06:31:14;5.80;;;5.20;;
7402;SDS011;3742;48.770;11.440;2022-07-31T06:33:44;6.13;;;5.20;;
7402;SDS011;3742;48.770;11.440;2022-07-31T06:36:15;5.63;;;5.13;;
7402;SDS011;3742;48.770;11.440;2022-07-31T06:38:57;6.63;;;4.97;;
7402;SDS011;3742;48.770;11.440;2022-07-31T06:41:25;6.17;;;5.30;;
7402;SDS011;3742;48.770;11.440;2022-07-31T06:44:35;5.53;;;4.97;;
7402;SDS011;3742;48.770;11.440;2022-07-31T06:47:30;5.50;;;5.00;;
7402;SDS011;3742;48.770;11.440;2022-07-31T06:50:17;6.97;;;5.53;;
7402;SDS011;3742;48.770;11.440;2022-07-31T06:53:09;7.77;;;5.50;;
7402;SDS011;3742;48.770;11.440;2022-07-31T06:55:38;5.53;;;4.90;;
7402;SDS011;3742;48.770;11.440;2022-07-31T06:58:10;5.50;;;4.97;;
7402;SDS011;3742;48.770;11.440;2022-07-31T07:00:40;8.13;;;5.30;;
7402;SDS011;3742;48.770;11.440;2022-07-31T07:03:09;5.63;;;5.13;;
7402;SDS011;3742;48.770;11.440;2022-07-31T07:05:37;5.57;;;4.70;;
7402;SDS011;3742;48.770;11.440;2022-07-31T07:08:11;5.03;;;4.53;;
7402;SDS011;3742;48.770;11.440;2022-07-31T07:10:41;5.10;;;4.27;;
7402;SDS011;3742;48.770;11.440;2022-07-31T07:13:18;7.00;;;4.30;;
7402;SDS011;3742;48.770;11.440;2022-07-31T07:15:50;7.07;;;4.43;;
7402;SDS011;3742;48.770;11.440;2022-07-31T07:18:23;5.87;;;4.30;;
7402;SDS011;3742;48.770;11.440;2022-07-31T07:20:53;5.57;;;4.73;;
7402;SDS011;3742;48.770;11.440;2022-07-31T07:23:21;5.13;;;4.60;;
7402;SDS011;3742;48.770;11.440;2022-07-31T07:26:13;4.77;;;4.27;;
7402;SDS011;3742;48.770;11.440;2022-07-31T07:28:41;4.97;;;4.53;;
7402;SDS011;3742;48.770;11.440;2022-07-31T07:31:11;7.83;;;5.17;;
7402;SDS011;3742;48.770;11.440;2022-07-31T07:33:39;5.20;;;4.43;;
7402;SDS011;3742;48.770;11.440;2022-07-31T07:36:19;6.03;;;4.73;;
7402;SDS011;3742;48.770;11.440;2022-07-31T07:38:55;6.90;;;5.37;;
7402;SDS011;3742;48.770;11.440;2022-07-31T07:41:24;4.97;;;4.50;;
7402;SDS011;3742;48.770;11.440;2022-07-31T07:43:53;7.83;;;5.70;;
7402;SDS011;3742;48.770;11.440;2022-07-31T07:46:27;9.20;;;6.23;;
7402;SDS011;3742;48.770;11.440;2022-07-31T07:48:58;7.10;;;6.40;;
7402;SDS011;3742;48.770;11.440;2022-07-31T07:51:53;7.70;;;6.90;;
7402;SDS011;3742;48.770;11.440;2022-07-31T07:54:38;8.73;;;6.97;;
7402;SDS011;3742;48.770;11.440;2022-07-31T07:57:42;9.20;;;5.57;;
7402;SDS011;3742;48.770;11.440;2022-07-31T08:00:29;7.57;;;5.33;;
7402;SDS011;3742;48.770;11.440;2022-07-31T08:03:03;6.27;;;4.97;;
7402;SDS011;3742;48.770;11.440;2022-07-31T08:05:51;5.30;;;4.80;;
7402;SDS011;3742;48.770;11.440;2022-07-31T08:08:20;6.90;;;5.23;;
7402;SDS011;3742;48.770;11.440;2022-07-31T08:10:48;5.77;;;5.23;;
7402;SDS011;3742;48.770;11.440;2022-07-31T08:13:21;6.13;;;5.43;;
7402;SDS011;3742;48.770;11.440;2022-07-31T08:16:09;7.57;;;5.23;;
7402;SDS011;3742;48.770;11.440;2022-07-31T08:18:44;6.70;;;4.83;;
7402;SDS011;3742;48.770;11.440;2022-07-31T08:21:13;7.37;;;4.90;;
7402;SDS011;3742;48.770;11.440;2022-07-31T08:23:41;7.47;;;4.50;;
7402;SDS011;3742;48.770;11.440;2022-07-31T08:26:10;6.43;;;4.90;;
7402;SDS011;3742;48.770;11.440;2022-07-31T08:28:40;5.47;;;4.33;;
7402;SDS011;3742;48.770;11.440;2022-07-31T08:31:19;5.60;;;4.67;;
7402;SDS011;3742;48.770;11.440;2022-07-31T08:34:03;5.10;;;4.13;;
7402;SDS011;3742;48.770;11.440;2022-07-31T08:36:33;5.03;;;4.30;;
7402;SDS011;3742;48.770;11.440;2022-07-31T08:39:01;4.90;;;3.97;;
7402;SDS011;3742;48.770;11.440;2022-07-31T08:41:44;6.80;;;4.40;;
7402;SDS011;3742;48.770;11.440;2022-07-31T08:44:13;7.00;;;3.90;;
7402;SDS011;3742;48.770;11.440;2022-07-31T08:46:41;6.90;;;3.60;;
7402;SDS011;3742;48.770;11.440;2022-07-31T08:49:13;4.27;;;3.87;;
7402;SDS011;3742;48.770;11.440;2022-07-31T08:51:44;4.83;;;4.20;;
7402;SDS011;3742;48.770;11.440;2022-07-31T08:54:41;7.03;;;5.60;;
7402;SDS011;3742;48.770;11.440;2022-07-31T08:57:12;4.53;;;3.67;;
7402;SDS011;3742;48.770;11.440;2022-07-31T08:59:42;5.80;;;3.50;;
7402;SDS011;3742;48.770;11.440;2022-07-31T09:02:11;7.23;;;3.90;;
7402;SDS011;3742;48.770;11.440;2022-07-31T09:05:02;4.43;;;3.27;;
7402;SDS011;3742;48.770;11.440;2022-07-31T09:07:31;5.27;;;3.70;;
7402;SDS011;3742;48.770;11.440;2022-07-31T09:10:00;5.37;;;4.00;;
7402;SDS011;3742;48.770;11.440;2022-07-31T09:12:29;4.73;;;3.57;;
7402;SDS011;3742;48.770;11.440;2022-07-31T09:15:10;4.77;;;2.93;;
7402;SDS011;3742;48.770;11.440;2022-07-31T09:17:46;4.90;;;3.97;;
7402;SDS011;3742;48.770;11.440;2022-07-31T09:20:22;5.33;;;3.57;;
7402;SDS011;3742;48.770;11.440;2022-07-31T09:23:02;5.03;;;3.77;;
7402;SDS011;3742;48.770;11.440;2022-07-31T09:25:31;4.03;;;3.63;;
7402;SDS011;3742;48.770;11.440;2022-07-31T09:28:01;5.83;;;3.53;;
7402;SDS011;3742;48.770;11.440;2022-07-31T09:30:32;3.53;;;3.23;;
7402;SDS011;3742;48.770;11.440;2022-07-31T09:33:30;4.40;;;3.00;;
7402;SDS011;3742;48.770;11.440;2022-07-31T09:36:30;4.13;;;3.20;;
7402;SDS011;3742;48.770;11.440;2022-07-31T09:39:18;5.37;;;3.20;;
7402;SDS011;3742;48.770;11.440;2022-07-31T09:41:59;5.27;;;3.27;;
7402;SDS011;3742;48.770;11.440;2022-07-31T09:45:14;4.63;;;2.67;;
7402;SDS011;3742;48.770;11.440;2022-07-31T09:47:44;3.43;;;3.03;;
7402;SDS011;3742;48.770;11.440;2022-07-31T09:50:13;3.43;;;2.53;;
7402;SDS011;3742;48.770;11.440;2022-07-31T09:52:43;6.23;;;3.10;;
7402;SDS011;3742;48.770;11.440;2022-07-31T09:55:12;3.67;;;2.50;;
7402;SDS011;3742;48.770;11.440;2022-07-31T09:57:50;5.27;;;2.80;;
7402;SDS011;3742;48.770;11.440;2022-07-31T10:00:20;8.27;;;3.57;;
7402;SDS011;3742;48.770;11.440;2022-07-31T10:02:50;2.73;;;2.53;;
7402;SDS011;3742;48.770;11.440;2022-07-31T10:05:21;3.57;;;2.10;;
7402;SDS011;3742;48.770;11.440;2022-07-31T10:07:55;3.50;;;2.80;;
7402;SDS011;3742;48.770;11.440;2022-07-31T10:10:45;4.93;;;3.03;;
7402;SDS011;3742;48.770;11.440;2022-07-31T10:13:24;3.13;;;2.50;;
7402;SDS011;3742;48.770;11.440;2022-07-31T10:15:54;2.07;;;1.93;;
7402;SDS011;3742;48.770;11.440;2022-07-31T10:18:49;4.20;;;2.60;;
7402;SDS011;3742;48.770;11.440;2022-07-31T10:21:57;2.60;;;2.40;;
7402;SDS011;3742;48.770;11.440;2022-07-31T10:24:33;2.80;;;2.40;;
7402;SDS011;3742;48.770;11.440;2022-07-31T10:27:07;3.17;;;2.77;;
7402;SDS011;3742;48.770;11.440;2022-07-31T10:29:39;3.60;;;2.40;;
7402;SDS011;3742;48.770;11.440;2022-07-31T10:32:08;2.83;;;2.40;;
7402;SDS011;3742;48.770;11.440;2022-07-31T10:34:55;3.60;;;2.70;;
7402;SDS011;3742;48.770;11.440;2022-07-31T10:37:44;8.70;;;3.03;;
7402;SDS011;3742;48.770;11.440;2022-07-31T10:40:34;3.10;;;2.50;;
7402;SDS011;3742;48.770;11.440;2022-07-31T10:43:13;6.28;;;2.83;;
7402;SDS011;3742;48.770;11.440;2022-07-31T10:46:02;2.75;;;2.50;;
7402;SDS011;3742;48.770;11.440;2022-07-31T10:48:49;3.63;;;2.37;;
7402;SDS011;3742;48.770;11.440;2022-07-31T10:51:56;2.55;;;2.20;;
7402;SDS011;3742;48.770;11.440;2022-07-31T10:54:40;2.93;;;2.40;;
7402;SDS011;3742;48.770;11.440;2022-07-31T10:57:32;2.95;;;2.22;;
7402;SDS011;3742;48.770;11.440;2022-07-31T11:00:41;3.60;;;2.40;;
7402;SDS011;3742;48.770;11.440;2022-07-31T11:03:24;2.47;;;2.28;;
7402;SDS011;3742;48.770;11.440;2022-07-31T11:06:13;3.42;;;2.30;;
7402;SDS011;3742;48.770;11.440;2022-07-31T11:08:53;3.92;;;2.50;;
7402;SDS011;3742;48.770;11.440;2022-07-31T11:11:52;3.22;;;2.30;;
7402;SDS011;3742;48.770;11.440;2022-07-31T11:14:46;3.38;;;2.35;;
7402;SDS011;3742;48.770;11.440;2022-07-31T11:17:35;3.00;;;1.92;;
7402;SDS011;3742;48.770;11.440;2022-07-31T11:20:25;2.58;;;2.00;;
7402;SDS011;3742;48.770;11.440;2022-07-31T11:22:55;2.85;;;1.98;;
7402;SDS011;3742;48.770;11.440;2022-07-31T11:25:26;2.33;;;2.00;;
7402;SDS011;3742;48.770;11.440;2022-07-31T11:27:56;4.22;;;2.05;;
7402;SDS011;3742;48.770;11.440;2022-07-31T11:30:26;2.58;;;2.00;;
7402;SDS011;3742;48.770;11.440;2022-07-31T11:32:55;4.65;;;2.35;;
7402;SDS011;3742;48.770;11.440;2022-07-31T11:35:24;2.05;;;1.83;;
7402;SDS011;3742;48.770;11.440;2022-07-31T11:37:54;3.10;;;2.00;;
7402;SDS011;3742;48.770;11.440;2022-07-31T11:40:25;3.10;;;2.08;;
7402;SDS011;3742;48.770;11.440;2022-07-31T11:42:54;1.77;;;1.67;;
7402;SDS011;3742;48.770;11.440;2022-07-31T11:45:46;2.00;;;1.80;;
7402;SDS011;3742;48.770;11.440;2022-07-31T11:48:15;2.38;;;1.88;;
7402;SDS011;3742;48.770;11.440;2022-07-31T11:50:45;2.83;;;2.45;;
7402;SDS011;3742;48.770;11.440;2022-07-31T11:53:15;2.58;;;2.08;;
7402;SDS011;3742;48.770;11.440;2022-07-31T11:55:45;3.05;;;1.95;;
7402;SDS011;3742;48.770;11.440;2022-07-31T11:58:16;3.35;;;2.10;;
7402;SDS011;3742;48.770;11.440;2022-07-31T12:00:47;2.13;;;1.92;;
7402;SDS011;3742;48.770;11.440;2022-07-31T12:03:17;1.85;;;1.75;;
7402;SDS011;3742;48.770;11.440;2022-07-31T12:05:46;4.32;;;2.20;;
7402;SDS011;3742;48.770;11.440;2022-07-31T12:08:16;4.47;;;2.00;;
7402;SDS011;3742;48.770;11.440;2022-07-31T12:10:45;3.47;;;2.25;;
7402;SDS011;3742;48.770;11.440;2022-07-31T12:13:13;3.13;;;1.90;;
7402;SDS011;3742;48.770;11.440;2022-07-31T12:15:58;3.38;;;2.10;;
7402;SDS011;3742;48.770;11.440;2022-07-31T12:18:29;2.53;;;1.83;;
7402;SDS011;3742;48.770;11.440;2022-07-31T12:20:59;1.95;;;1.73;;
7402;SDS011;3742;48.770;11.440;2022-07-31T12:23:39;2.90;;;2.03;;
7402;SDS011;3742;48.770;11.440;2022-07-31T12:26:12;1.98;;;1.83;;
7402;SDS011;3742;48.770;11.440;2022-07-31T12:28:56;2.20;;;2.00;;
7402;SDS011;3742;48.770;11.440;2022-07-31T12:31:28;3.10;;;1.85;;
7402;SDS011;3742;48.770;11.440;2022-07-31T12:33:58;2.75;;;1.98;;
7402;SDS011;3742;48.770;11.440;2022-07-31T12:36:26;1.70;;;1.60;;
7402;SDS011;3742;48.770;11.440;2022-07-31T12:38:58;2.28;;;1.85;;
7402;SDS011;3742;48.770;11.440;2022-07-31T12:41:28;1.75;;;1.48;;
7402;SDS011;3742;48.770;11.440;2022-07-31T12:44:06;2.45;;;1.83;;
7402;SDS011;3742;48.770;11.440;2022-07-31T12:46:40;3.63;;;2.20;;
7402;SDS011;3742;48.770;11.440;2022-07-31T12:49:09;3.80;;;1.67;;
7402;SDS011;3742;48.770;11.440;2022-07-31T12:51:38;2.83;;;1.90;;
7402;SDS011;3742;48.770;11.440;2022-07-31T12:54:12;2.72;;;1.73;;
7402;SDS011;3742;48.770;11.440;2022-07-31T12:56:42;2.17;;;1.80;;
7402;SDS011;3742;48.770;11.440;2022-07-31T12:59:11;1.92;;;1.65;;
7402;SDS011;3742;48.770;11.440;2022-07-31T13:01:41;2.30;;;1.67;;
7402;SDS011;3742;48.770;11.440;2022-07-31T13:04:09;1.90;;;1.70;;
7402;SDS011;3742;48.770;11.440;2022-07-31T13:06:45;2.63;;;2.03;;
7402;SDS011;3742;48.770;11.440;2022-07-31T13:09:17;2.10;;;1.70;;
7402;SDS011;3742;48.770;11.440;2022-07-31T13:11:46;2.25;;;1.90;;
7402;SDS011;3742;48.770;11.440;2022-07-31T13:14:22;4.10;;;1.65;;
7402;SDS011;3742;48.770;11.440;2022-07-31T13:16:52;2.08;;;1.77;;
7402;SDS011;3742;48.770;11.440;2022-07-31T13:19:21;3.80;;;1.70;;
7402;SDS011;3742;48.770;11.440;2022-07-31T13:21:50;3.53;;;1.87;;
7402;SDS011;3742;48.770;11.440;2022-07-31T13:24:23;3.13;;;1.70;;
7402;SDS011;3742;48.770;11.440;2022-07-31T13:26:52;1.70;;;1.40;;
7402;SDS011;3742;48.770;11.440;2022-07-31T13:29:20;3.35;;;1.60;;
7402;SDS011;3742;48.770;11.440;2022-07-31T13:31:49;2.67;;;1.50;;
7402;SDS011;3742;48.770;11.440;2022-07-31T13:34:19;1.65;;;1.55;;
7402;SDS011;3742;48.770;11.440;2022-07-31T13:36:47;1.98;;;1.77;;
7402;SDS011;3742;48.770;11.440;2022-07-31T13:39:16;1.60;;;1.50;;
7402;SDS011;3742;48.770;11.440;2022-07-31T13:41:44;1.48;;;1.33;;
7402;SDS011;3742;48.770;11.440;2022-07-31T13:44:14;2.75;;;1.58;;
7402;SDS011;3742;48.770;11.440;2022-07-31T13:46:42;2.35;;;1.63;;
7402;SDS011;3742;48.770;11.440;2022-07-31T13:49:11;2.28;;;1.67;;
7402;SDS011;3742;48.770;11.440;2022-07-31T13:51:41;1.60;;;1.50;;
7402;SDS011;3742;48.770;11.440;2022-07-31T13:54:09;2.17;;;1.38;;
7402;SDS011;3742;48.770;11.440;2022-07-31T13:56:38;2.85;;;1.85;;
7402;SDS011;3742;48.770;11.440;2022-07-31T13:59:10;5.82;;;1.52;;
7402;SDS011;3742;48.770;11.440;2022-07-31T14:01:40;2.92;;;1.40;;
7402;SDS011;3742;48.770;11.440;2022-07-31T14:04:29;2.47;;;1.58;;
7402;SDS011;3742;48.770;11.440;2022-07-31T14:07:05;3.92;;;1.20;;
7402;SDS011;3742;48.770;11.440;2022-07-31T14:09:35;2.30;;;1.23;;
7402;SDS011;3742;48.770;11.440;2022-07-31T14:12:03;1.30;;;1.20;;
7402;SDS011;3742;48.770;11.440;2022-07-31T14:14:33;2.28;;;1.60;;
7402;SDS011;3742;48.770;11.440;2022-07-31T14:17:02;2.38;;;1.50;;
7402;SDS011;3742;48.770;11.440;2022-07-31T14:19:30;1.52;;;1.40;;
7402;SDS011;3742;48.770;11.440;2022-07-31T14:22:12;2.40;;;1.45;;
7402;SDS011;3742;48.770;11.440;2022-07-31T14:24:41;2.30;;;1.42;;
7402;SDS011;3742;48.770;11.440;2022-07-31T14:27:17;1.90;;;1.67;;
7402;SDS011;3742;48.770;11.440;2022-07-31T14:29:47;1.88;;;1.60;;
7402;SDS011;3742;48.770;11.440;2022-07-31T14:32:15;1.83;;;1.50;;
7402;SDS011;3742;48.770;11.440;2022-07-31T14:34:45;1.65;;;1.50;;
7402;SDS011;3742;48.770;11.440;2022-07-31T14:37:15;1.73;;;1.50;;
7402;SDS011;3742;48.770;11.440;2022-07-31T14:39:43;8.43;;;1.90;;
7402;SDS011;3742;48.770;11.440;2022-07-31T14:42:12;2.75;;;1.35;;
7402;SDS011;3742;48.770;11.440;2022-07-31T14:44:48;3.25;;;1.63;;
7402;SDS011;3742;48.770;11.440;2022-07-31T14:47:16;2.25;;;1.50;;
7402;SDS011;3742;48.770;11.440;2022-07-31T14:49:44;1.58;;;1.48;;
7402;SDS011;3742;48.770;11.440;2022-07-31T14:52:34;1.83;;;1.40;;
7402;SDS011;3742;48.770;11.440;2022-07-31T14:55:04;2.15;;;1.40;;
7402;SDS011;3742;48.770;11.440;2022-07-31T14:57:33;1.70;;;1.52;;
7402;SDS011;3742;48.770;11.440;2022-07-31T15:00:02;2.65;;;1.67;;
7402;SDS011;3742;48.770;11.440;2022-07-31T15:02:38;2.03;;;1.55;;
7402;SDS011;3742;48.770;11.440;2022-07-31T15:05:07;1.90;;;1.70;;
7402;SDS011;3742;48.770;11.440;2022-07-31T15:07:57;2.80;;;1.30;;
7402;SDS011;3742;48.770;11.440;2022-07-31T15:10:28;1.55;;;1.45;;
7402;SDS011;3742;48.770;11.440;2022-07-31T15:12:57;1.25;;;1.15;;
7402;SDS011;3742;48.770;11.440;2022-07-31T15:15:25;1.98;;;1.60;;
7402;SDS011;3742;48.770;11.440;2022-07-31T15:17:54;2.88;;;1.50;;
7402;SDS011;3742;48.770;11.440;2022-07-31T15:20:23;2.53;;;1.75;;
7402;SDS011;3742;48.770;11.440;2022-07-31T15:23:00;2.60;;;1.70;;
7402;SDS011;3742;48.770;11.440;2022-07-31T15:25:29;1.55;;;1.45;;
7402;SDS011;3742;48.770;11.440;2022-07-31T15:27:57;2.53;;;1.60;;
7402;SDS011;3742;48.770;11.440;2022-07-31T15:30:26;3.63;;;1.70;;
7402;SDS011;3742;48.770;11.440;2022-07-31T15:32:54;1.90;;;1.50;;
7402;SDS011;3742;48.770;11.440;2022-07-31T15:35:23;1.95;;;1.75;;
7402;SDS011;3742;48.770;11.440;2022-07-31T15:37:51;3.83;;;1.88;;
7402;SDS011;3742;48.770;11.440;2022-07-31T15:40:21;2.00;;;1.55;;
7402;SDS011;3742;48.770;11.440;2022-07-31T15:42:50;3.58;;;1.80;;